Time;durP1;ratioP1;P1;durP2;ratioP2;P2;SDS_P1;SDS_P2;PMS_P1;PMS_P2;Temp;Humidity;BMP_temperature;BMP_pressure;BME280_temperature;BME280_humidity;BME280_pressure;Samples;Min_cycle;Max_cycle;Signal;HPM_P1;HPM_P2
2021/03/08 00:00:14;;;;;;;83.73;49.93;;;6.40;99.90;;;6.66;63.35;102304.41;4917085;29;20487;-75
2021/03/08 00:02:42;;;;;;;83.63;50.63;;;6.40;99.90;;;6.65;63.26;102302.66;4900125;29;20056;-75
2021/03/08 00:05:11;;;;;;;88.57;49.00;;;6.50;99.90;;;6.19;62.75;102213.44;4917006;29;20056;-75
2021/03/08 00:07:40;;;;;;;80.77;47.80;;;6.50;99.90;;;6.66;63.74;102304.41;4916964;29;20044;-75
2021/03/08 00:10:09;;;;;;;78.27;47.70;;;6.40;99.90;;;6.68;64.07;102300.09;4900201;29;20111;-75
2021/03/08 00:12:37;;;;;;;79.97;47.07;;;6.40;99.90;;;6.67;63.97;102303.59;4916888;29;20067;-75
2021/03/08 00:15:07;;;;;;;77.60;47.10;;;6.40;99.90;;;6.69;63.38;102301.00;4899942;29;20155;-74
2021/03/08 00:17:34;;;;;;;82.25;50.10;;;6.40;99.90;;;6.67;63.43;102303.59;4916801;29;20379;-75
2021/03/08 00:20:09;;;;;;;76.32;48.63;;;6.40;99.90;;;6.67;63.63;102307.94;4899615;29;20142;-75
2021/03/08 00:22:37;;;;;;;83.03;49.80;;;6.40;99.90;;;6.57;63.87;102311.09;4917005;29;20055;-75
2021/03/08 00:25:07;;;;;;;75.07;47.87;;;6.40;99.90;;;6.62;63.79;102301.66;4916870;29;20043;-75
2021/03/08 00:27:35;;;;;;;75.23;48.43;;;6.40;99.90;;;6.65;64.30;102300.03;4917039;29;20048;-73
2021/03/08 00:30:04;;;;;;;81.03;49.87;;;6.40;99.90;;;6.66;64.64;102295.66;4916657;29;20076;-75
2021/03/08 00:32:32;;;;;;;76.50;48.30;;;6.40;99.90;;;6.61;64.97;102292.88;4899639;29;20044;-75
2021/03/08 00:35:00;;;;;;;77.93;49.53;;;6.30;99.90;;;6.63;65.00;102290.28;4916825;29;20570;-75
2021/03/08 00:37:31;;;;;;;75.47;48.07;;;6.30;99.90;;;6.70;65.61;102301.06;4916502;29;20494;-75
2021/03/08 00:39:59;;;;;;;72.63;46.20;;;6.40;99.90;;;6.71;65.82;102294.97;4899753;29;20052;-76
2021/03/08 00:42:27;;;;;;;71.83;45.03;;;6.40;99.90;;;6.72;66.37;102290.59;4916610;29;20123;-75
2021/03/08 00:44:54;;;;;;;72.20;47.27;;;6.40;99.90;;;6.72;66.40;102290.59;4916468;29;20135;-75
2021/03/08 00:47:22;;;;;;;77.60;47.93;;;6.40;99.90;;;6.69;66.23;102282.59;4899689;29;20084;-75
2021/03/08 00:49:52;;;;;;;76.47;46.80;;;6.40;99.90;;;6.68;66.16;102300.09;4899592;29;20545;-75
2021/03/08 00:52:21;;;;;;;73.73;47.40;;;6.40;99.90;;;6.69;66.87;102285.25;4899656;29;20502;-74
2021/03/08 00:54:49;;;;;;;79.23;48.77;;;6.40;99.90;;;6.69;66.71;102286.13;4916494;29;20068;-75
2021/03/08 00:57:19;;;;;;;77.43;47.07;;;6.40;99.90;;;6.69;66.28;102279.97;4899120;29;20108;-75
2021/03/08 00:59:49;;;;;;;;;;;6.40;99.90;;;6.71;65.79;102283.56;4900060;29;20414;-74
2021/03/08 01:02:17;;;;;;;78.00;46.30;;;6.50;99.90;;;6.73;65.52;102288.03;4916809;29;19927;-75
2021/03/08 01:04:47;;;;;;;77.18;47.13;;;6.40;99.90;;;6.66;65.80;102275.50;4899787;29;20058;-75
2021/03/08 01:07:16;;;;;;;70.83;46.10;;;6.40;99.90;;;6.71;66.06;102278.28;4899313;29;20055;-75
2021/03/08 01:09:47;;;;;;;72.90;46.13;;;6.40;99.90;;;6.65;66.05;102271.09;4899339;29;20044;-76
2021/03/08 01:12:16;;;;;;;71.87;44.80;;;6.40;99.90;;;6.67;66.18;102273.78;4899266;29;20123;-75
2021/03/08 01:14:49;;;;;;;74.37;46.30;;;6.40;99.90;;;6.68;66.52;102272.94;4899098;29;20111;-75
2021/03/08 01:17:17;;;;;;;69.57;43.97;;;6.30;99.90;;;6.70;67.24;102273.88;4916099;29;20100;-75
2021/03/08 01:19:44;;;;;;;71.97;44.70;;;6.30;99.90;;;6.66;67.08;102269.38;4916236;29;20041;-74
2021/03/08 01:22:12;;;;;;;68.93;42.60;;;6.30;99.90;;;6.64;67.36;102266.66;4916197;29;20048;-75
2021/03/08 01:24:40;;;;;;;65.57;42.03;;;6.30;99.90;;;6.64;67.35;102263.16;4916132;29;20048;-74
2021/03/08 01:27:08;;;;;;;69.40;43.23;;;6.30;99.90;;;6.65;67.69;102262.31;4898912;29;20127;-75
2021/03/08 01:29:37;;;;;;;66.30;41.43;;;6.30;99.90;;;6.70;67.47;102266.88;4916052;29;20044;-75
2021/03/08 01:32:06;;;;;;;63.73;40.97;;;6.40;99.90;;;6.68;67.79;102262.44;4919088;29;20068;-73
2021/03/08 01:34:33;;;;;;;63.97;41.63;;;6.40;99.90;;;6.68;68.00;102263.31;4919735;29;20043;-75
2021/03/08 01:37:01;;;;;;;62.93;41.80;;;6.30;99.90;;;6.54;67.28;102238.31;4919546;29;20454;-74
2021/03/08 01:39:28;;;;;;;62.80;42.47;;;6.40;99.90;;;6.79;67.65;102268.94;4919536;29;20048;-75
2021/03/08 01:41:57;;;;;;;63.50;40.80;;;6.50;99.90;;;6.89;67.51;102265.78;4919955;29;20048;-74
2021/03/08 01:44:24;;;;;;;61.70;40.10;;;6.60;99.90;;;6.94;67.11;102262.44;4919474;29;20123;-75
2021/03/08 01:46:52;;;;;;;63.50;40.53;;;6.70;99.90;;;6.84;66.18;102265.59;4919432;29;20104;-75
2021/03/08 01:49:20;;;;;;;62.10;39.87;;;6.60;99.90;;;6.87;66.06;102259.56;4919461;29;20040;-75
2021/03/08 01:51:47;;;;;;;63.97;39.87;;;6.60;99.90;;;6.82;65.34;102256.78;4919416;29;20087;-75
2021/03/08 01:54:15;;;;;;;60.87;40.37;;;6.50;99.90;;;6.82;64.65;102255.88;4902297;29;20450;-75
2021/03/08 01:56:42;;;;;;;60.67;39.97;;;6.50;99.90;;;6.95;64.39;102256.31;4919216;29;20068;-75
2021/03/08 01:59:10;;;;;;;58.43;38.53;;;6.60;99.90;;;7.03;64.21;102259.19;4919440;29;20078;-75
2021/03/08 02:01:38;;;;;;;62.00;39.80;;;6.60;99.90;;;7.04;63.47;102254.00;4919723;29;20040;-76
2021/03/08 02:04:06;;;;;;;57.57;39.37;;;6.70;99.90;;;6.98;63.09;102252.91;4919168;29;20454;-75
2021/03/08 02:06:34;;;;;;;66.37;39.77;;;6.70;99.90;;;7.05;62.87;102249.63;4919026;29;20463;-75
2021/03/08 02:09:03;;;;;;;62.00;39.77;;;6.70;99.90;;;7.11;62.91;102255.06;4902332;29;20099;-75
2021/03/08 02:11:37;;;;;;;57.67;37.17;;;6.80;99.90;;;7.19;62.53;102243.97;4919258;29;20550;-75
2021/03/08 02:14:33;;;;;;;66.47;39.60;;;6.80;99.90;;;7.14;62.68;102257.81;4918835;29;20036;-74
2021/03/08 02:17:07;;;;;;;61.03;39.70;;;6.80;99.90;;;7.10;62.60;102259.44;4918758;29;20048;-75
2021/03/08 02:20:26;;;;;;;57.63;38.43;;;6.80;99.90;;;7.19;62.39;102243.97;4902247;29;20402;-75
2021/03/08 02:23:30;;;;;;;60.10;38.20;;;6.80;99.90;;;7.28;62.53;102243.34;4918096;29;20062;-73
2021/03/08 02:26:42;;;;;;;61.70;39.33;;;6.90;99.90;;;7.27;62.19;102233.66;4919205;29;20048;-75
2021/03/08 02:30:05;;;;;;;62.93;39.03;;;6.90;99.90;;;7.27;62.14;102224.03;4908980;29;20056;-74
2021/03/08 02:32:38;;;;;;;57.60;37.60;;;7.00;99.90;;;7.18;62.04;102231.63;4918707;29;20083;-75
2021/03/08 02:35:11;;;;;;;62.30;39.37;;;6.80;99.90;;;7.11;61.86;102231.41;4901806;29;20135;-75
2021/03/08 02:37:47;;;;;;;59.03;37.87;;;6.80;99.90;;;7.05;61.84;102228.56;4918581;29;20047;-75
2021/03/08 02:40:20;;;;;;;61.30;40.97;;;6.70;99.90;;;6.97;62.14;102230.97;4918720;29;20044;-75
2021/03/08 02:42:53;;;;;;;65.73;41.23;;;6.70;99.90;;;7.14;61.86;102252.56;4918278;29;20051;-75
2021/03/08 02:45:25;;;;;;;61.70;38.93;;;6.80;99.90;;;7.09;62.24;102230.47;4918661;29;20460;-75
2021/03/08 02:47:55;;;;;;;61.03;40.07;;;6.80;99.90;;;7.12;62.22;102227.94;4901743;29;20470;-75
2021/03/08 02:50:32;;;;;;;60.77;39.80;;;6.70;99.90;;;7.08;61.95;102233.94;4918299;29;20107;-74
2021/03/08 02:53:05;;;;;;;62.57;40.53;;;6.80;99.90;;;6.64;62.21;102139.63;4918748;29;20464;-75
2021/03/08 02:55:40;;;;;;;61.43;39.67;;;6.70;99.90;;;7.21;62.51;102217.69;4918491;29;20048;-74
2021/03/08 02:58:11;;;;;;;57.70;39.03;;;6.80;99.90;;;7.32;61.95;102221.53;4918215;29;20125;-74
2021/03/08 03:00:39;;;;;;;63.17;39.67;;;7.00;99.90;;;7.29;61.50;102221.44;4918206;29;20076;-74
2021/03/08 03:03:09;;;;;;;59.03;40.40;;;7.00;99.90;;;7.18;62.10;102222.88;4918016;29;20091;-75
2021/03/08 03:05:39;;;;;;;64.27;39.97;;;6.90;99.90;;;7.15;61.76;102228.03;4918031;29;20104;-75
2021/03/08 03:08:09;;;;;;;60.85;40.20;;;6.80;99.90;;;7.19;61.90;102227.28;4918238;29;20041;-75
2021/03/08 03:10:39;;;;;;;63.22;40.60;;;6.90;99.90;;;7.10;61.63;102198.94;4917924;29;20076;-74
2021/03/08 03:13:07;;;;;;;61.90;40.10;;;6.90;99.90;;;7.14;61.92;102213.09;4917920;29;20040;-74
2021/03/08 03:15:39;;;;;;;63.27;41.03;;;6.80;99.90;;;7.07;62.01;102216.38;4918089;29;20479;-74
2021/03/08 03:18:10;;;;;;;61.17;39.43;;;6.80;99.90;;;7.12;62.09;102220.03;4918047;29;20040;-74
2021/03/08 03:20:39;;;;;;;64.03;41.40;;;6.70;99.90;;;6.97;62.07;102220.44;4918002;29;20051;-74
2021/03/08 03:23:09;;;;;;;65.07;41.30;;;6.70;99.90;;;7.02;62.02;102221.50;4917708;29;20040;-74
2021/03/08 03:25:38;;;;;;;59.55;39.65;;;6.70;99.90;;;7.04;62.49;102213.66;4917861;29;20044;-74
2021/03/08 03:28:07;;;;;;;62.47;39.47;;;6.70;99.90;;;6.95;62.53;102210.75;4917692;29;20075;-74
2021/03/08 03:30:35;;;;;;;66.97;42.33;;;6.70;99.90;;;7.02;62.35;102212.72;4917851;29;20072;-75
2021/03/08 03:33:04;;;;;;;63.10;41.70;;;6.70;99.90;;;7.01;62.16;102213.53;4917723;29;20048;-75
2021/03/08 03:35:33;;;;;;;65.43;41.40;;;6.70;99.90;;;6.98;62.16;102205.56;4917579;29;20052;-74
2021/03/08 03:38:01;;;;;;;65.90;43.07;;;6.70;99.90;;;6.84;61.96;102205.13;4917471;29;20048;-73
2021/03/08 03:40:29;;;;;;;66.57;42.87;;;6.60;99.90;;;6.93;62.04;102212.44;4917280;29;20068;-74
2021/03/08 03:42:56;;;;;;;65.10;42.27;;;6.60;99.90;;;6.97;61.20;102211.66;4917811;29;20123;-74
2021/03/08 03:45:25;;;;;;;64.73;41.03;;;6.70;99.90;;;7.01;60.97;102203.00;4917554;29;20044;-74
2021/03/08 03:47:53;;;;;;;64.93;41.60;;;6.70;99.90;;;6.96;61.02;102212.50;4917289;29;20462;-75
2021/03/08 03:50:26;;;;;;;68.73;43.83;;;6.70;99.90;;;6.86;61.86;102205.16;4917306;29;20055;-73
2021/03/08 03:52:54;;;;;;;63.90;41.90;;;6.60;99.90;;;6.78;62.07;102204.03;4916916;29;20052;-75
2021/03/08 03:55:24;;;;;;;66.93;42.63;;;6.60;99.90;;;6.79;62.24;102208.47;4900240;29;20052;-74
2021/03/08 03:58:03;;;;;;;68.55;42.78;;;6.60;99.90;;;6.67;62.58;102208.94;4917369;29;20044;-75
2021/03/08 04:00:34;;;;;;;65.87;41.70;;;6.50;99.90;;;6.75;62.36;102215.34;4917422;29;20103;-75
2021/03/08 04:03:06;;;;;;;64.53;42.37;;;6.50;99.90;;;6.82;62.30;102209.44;4917158;29;20048;-74
2021/03/08 04:05:35;;;;;;;73.77;45.03;;;6.50;99.90;;;6.84;62.14;102212.13;4916997;29;20040;-74
2021/03/08 04:08:05;;;;;;;67.60;43.20;;;6.60;99.90;;;6.94;61.89;102215.09;4917673;29;20055;-73
2021/03/08 04:10:34;;;;;;;66.82;42.58;;;6.60;99.90;;;6.90;62.38;102210.59;4917147;29;20119;-73
2021/03/08 04:13:09;;;;;;;70.07;42.73;;;6.60;99.90;;;6.85;62.36;102216.53;4917003;29;20052;-74
2021/03/08 04:15:39;;;;;;;69.07;43.07;;;6.60;99.90;;;6.73;62.59;102213.50;4917143;29;20095;-75
2021/03/08 04:18:07;;;;;;;67.17;41.70;;;6.50;99.90;;;6.83;62.57;102215.59;4916685;29;20558;-74
2021/03/08 04:20:35;;;;;;;71.77;43.40;;;6.50;99.90;;;6.76;62.76;102222.38;4916605;29;20506;-74
2021/03/08 04:23:06;;;;;;;68.97;44.77;;;6.50;99.90;;;6.74;62.61;102224.06;4916957;29;20441;-75
2021/03/08 04:25:35;;;;;;;64.93;41.83;;;6.60;99.90;;;6.68;63.22;102223.88;4916778;29;20107;-75
2021/03/08 04:28:04;;;;;;;65.67;42.80;;;6.50;99.90;;;6.73;62.67;102222.31;4899624;29;20143;-75
2021/03/08 04:30:33;;;;;;;69.60;42.80;;;6.50;99.90;;;6.70;63.02;102216.91;4916685;29;20048;-75
2021/03/08 04:33:01;;;;;;;69.97;41.87;;;6.50;99.90;;;6.65;62.97;102220.25;4916626;29;20052;-75
2021/03/08 04:35:32;;;;;;;69.30;43.40;;;6.50;99.90;;;6.80;62.28;102220.75;4917012;29;20040;-74
2021/03/08 04:38:00;;;;;;;66.93;41.83;;;6.60;99.90;;;6.82;62.46;102232.22;4916661;29;20095;-75
2021/03/08 04:40:28;;;;;;;68.83;42.43;;;6.60;99.90;;;6.89;62.15;102229.81;4916618;29;20051;-74
2021/03/08 04:42:57;;;;;;;68.30;42.53;;;6.70;99.90;;;6.99;62.22;102234.53;4916515;29;20044;-74
2021/03/08 04:45:25;;;;;;;70.37;43.10;;;6.70;99.90;;;6.69;62.55;102215.16;4899415;29;20058;-75
2021/03/08 04:47:54;;;;;;;69.07;42.77;;;6.60;99.90;;;6.76;62.86;102230.28;4916384;29;20052;-75
2021/03/08 04:50:22;;;;;;;70.20;43.30;;;6.60;99.90;;;6.79;63.04;102232.13;4916761;29;20048;-74
2021/03/08 04:52:51;;;;;;;65.17;42.87;;;6.60;99.90;;;6.79;63.03;102230.41;4916413;29;20076;-74
2021/03/08 04:55:23;;;;;;;67.27;42.30;;;6.60;99.90;;;6.93;62.68;102238.72;4916768;29;20060;-75
2021/03/08 04:57:51;;;;;;;63.97;41.00;;;6.70;99.90;;;6.92;62.85;102227.31;4916207;29;20340;-75
2021/03/08 05:00:21;;;;;;;69.17;42.47;;;6.70;99.90;;;6.90;62.80;102225.47;4916524;29;20494;-75
2021/03/08 05:02:51;;;;;;;68.63;42.60;;;6.70;99.90;;;6.85;62.87;102213.91;4916459;29;20103;-74
2021/03/08 05:05:23;;;;;;;72.90;43.92;;;6.70;99.90;;;6.95;62.55;102231.78;4918311;29;20139;-75
2021/03/08 05:07:58;;;;;;;74.40;46.13;;;6.70;99.90;;;6.84;62.81;102214.75;4903259;29;20052;-72
2021/03/08 05:10:27;;;;;;;72.57;42.30;;;6.70;99.90;;;6.89;62.80;102226.31;4920046;29;20525;-71
2021/03/08 05:12:57;;;;;;;70.50;43.53;;;6.70;99.90;;;6.94;62.87;102219.47;4920118;29;20048;-77
2021/03/08 05:15:27;;;;;;;70.80;42.60;;;6.70;99.90;;;6.73;63.02;102168.81;4903134;29;20080;-77
2021/03/08 05:17:57;;;;;;;68.43;41.53;;;6.70;99.90;;;7.04;62.50;102216.28;4903002;29;20403;-81
2021/03/08 05:20:25;;;;;;;67.07;41.33;;;6.70;99.90;;;6.89;62.40;102200.03;4920067;29;20044;-75
2021/03/08 05:22:58;;;;;;;66.93;41.17;;;6.80;99.90;;;7.03;62.59;102222.38;4919760;29;20040;-74
2021/03/08 05:25:26;;;;;;;67.93;41.57;;;6.70;99.90;;;7.04;62.43;102217.19;4919766;29;20115;-73
2021/03/08 05:27:55;;;;;;;67.13;43.90;;;6.80;99.90;;;6.98;62.91;102195.03;4919959;29;20052;-73
2021/03/08 05:30:25;;;;;;;68.43;42.00;;;6.80;99.90;;;7.11;62.75;102219.16;4919865;29;20119;-73
2021/03/08 05:33:13;;;;;;;72.30;43.27;;;6.80;99.90;;;6.98;63.14;102219.63;4919674;29;20521;-75
2021/03/08 05:35:43;;;;;;;66.40;41.73;;;6.80;99.90;;;7.01;63.38;102216.16;4919941;29;20462;-73
2021/03/08 05:38:12;;;;;;;67.97;41.90;;;6.70;99.90;;;7.01;63.56;102214.44;4919726;29;20044;-75
2021/03/08 05:40:45;;;;;;;67.53;42.43;;;6.70;99.90;;;7.08;63.16;102226.06;4919676;29;20067;-72
2021/03/08 05:43:17;;;;;;;68.67;43.47;;;6.80;99.90;;;6.98;63.03;102224.88;4919843;29;20241;-73
2021/03/08 05:45:54;;;;;;;64.77;41.13;;;6.70;99.90;;;7.08;63.49;102224.28;4919563;29;20095;-72
2021/03/08 05:49:02;;;;;;;67.13;41.73;;;6.80;99.90;;;7.09;63.57;102219.94;4919731;29;20055;-73
2021/03/08 05:52:04;;;;;;;68.60;42.20;;;6.80;99.90;;;7.04;63.77;102224.16;4919392;29;20522;-72
2021/03/08 05:55:22;;;;;;;68.87;41.60;;;6.70;99.90;;;7.22;63.40;102232.63;4919402;29;20066;-73
2021/03/08 05:58:29;;;;;;;69.23;40.60;;;6.90;99.90;;;7.20;63.21;102229.94;4903067;29;20056;-73
2021/03/08 06:01:54;;;;;;;66.27;40.00;;;6.90;99.90;;;7.16;63.05;102235.09;4908250;29;20454;-73
2021/03/08 06:05:06;;;;;;;65.07;41.17;;;6.90;99.90;;;6.98;63.79;102232.75;4913055;29;20052;-73
2021/03/08 06:08:14;;;;;;;68.57;40.77;;;6.80;99.90;;;7.07;64.08;102237.41;4919450;29;20478;-73
2021/03/08 06:10:48;;;;;;;68.43;42.07;;;6.80;99.90;;;7.07;63.64;102237.41;4918902;29;20103;-73
2021/03/08 06:13:20;;;;;;;67.90;41.43;;;6.80;99.90;;;7.06;64.14;102240.91;4919228;29;20070;-74
2021/03/08 06:15:57;;;;;;;66.33;42.70;;;6.80;99.90;;;7.08;64.18;102234.81;4918555;29;20052;-72
2021/03/08 06:18:34;;;;;;;64.33;40.43;;;6.80;99.90;;;7.05;64.25;102231.19;4918965;29;20044;-73
2021/03/08 06:21:03;;;;;;;65.70;40.77;;;6.80;99.90;;;7.14;63.72;102235.00;4918929;29;20079;-74
2021/03/08 06:23:31;;;;;;;62.37;39.70;;;6.80;99.90;;;6.98;64.72;102234.50;4918762;29;20130;-73
2021/03/08 06:25:59;;;;;;;69.33;42.17;;;6.80;99.90;;;7.12;64.46;102243.72;4902019;29;20068;-73
2021/03/08 06:28:28;;;;;;;67.60;41.13;;;6.80;99.90;;;7.00;64.59;102235.44;4918905;29;20044;-73
2021/03/08 06:30:56;;;;;;;68.00;40.23;;;6.80;99.90;;;6.99;64.78;102244.16;4918623;29;20044;-73
2021/03/08 06:33:25;;;;;;;57.73;37.07;;;6.80;99.90;;;6.83;65.25;102237.50;4918701;29;20124;-73
2021/03/08 06:35:54;;;;;;;60.30;36.20;;;6.70;99.90;;;6.94;65.41;102249.28;4918875;29;20051;-73
2021/03/08 06:38:22;;;;;;;56.87;36.00;;;6.70;99.90;;;6.92;64.99;102234.28;4918688;29;20517;-73
2021/03/08 06:40:49;;;;;;;58.27;36.53;;;6.80;99.90;;;7.00;64.74;102246.88;4918417;29;20088;-72
2021/03/08 06:43:17;;;;;;;57.27;35.23;;;6.70;99.90;;;7.12;64.36;102243.72;4918167;29;20507;-74
2021/03/08 06:45:45;;;;;;;64.63;38.33;;;6.80;99.90;;;7.03;64.48;102241.69;4918543;29;20044;-73
2021/03/08 06:48:13;;;;;;;62.40;36.40;;;6.80;99.90;;;6.95;65.12;102244.94;4918461;29;20044;-73
2021/03/08 06:50:41;;;;;;;56.20;33.83;;;6.70;99.90;;;6.99;65.01;102244.16;4918243;29;20123;-73
2021/03/08 06:53:08;;;;;;;58.67;35.33;;;6.70;99.90;;;7.06;64.99;102244.44;4918296;29;20055;-73
2021/03/08 06:55:35;;;;;;;62.43;35.93;;;6.80;99.90;;;7.19;64.54;102248.31;4918381;29;20078;-73
2021/03/08 06:58:18;;;;;;;55.50;34.37;;;6.90;99.90;;;7.13;64.12;102249.03;4918089;29;20538;-74
2021/03/08 07:00:46;;;;;;;54.33;33.67;;;6.90;99.90;;;7.22;64.18;102249.31;4918156;29;20115;-73
2021/03/08 07:03:33;;;;;;;57.43;34.43;;;6.90;99.90;;;7.12;64.54;102249.00;4918058;29;20052;-73
2021/03/08 07:06:18;;;;;;;54.13;35.17;;;6.90;99.90;;;7.15;64.60;102241.19;4918253;29;20044;-74
2021/03/08 07:08:46;;;;;;;56.23;35.57;;;6.90;99.90;;;7.30;64.03;102252.16;4918111;29;20052;-73
2021/03/08 07:11:19;;;;;;;54.88;34.97;;;7.00;99.90;;;7.26;64.19;102250.28;4918072;29;20044;-73
2021/03/08 07:13:47;;;;;;;56.47;35.10;;;7.10;99.90;;;7.23;64.48;102250.22;4917990;29;20086;-73
2021/03/08 07:16:15;;;;;;;62.43;35.10;;;7.00;99.90;;;6.67;64.20;102147.59;4900829;29;20494;-73
2021/03/08 07:18:44;;;;;;;53.97;33.77;;;7.00;99.90;;;7.09;64.90;102223.47;4917675;29;20047;-73
2021/03/08 07:21:19;;;;;;;58.67;35.47;;;7.00;99.90;;;7.27;64.86;102246.81;4918176;29;20098;-73
2021/03/08 07:23:49;;;;;;;56.33;34.77;;;7.00;99.90;;;7.24;64.98;102236.19;4917562;29;20077;-73
2021/03/08 07:26:18;;;;;;;57.38;34.88;;;7.10;99.90;;;7.42;64.82;102256.91;4917603;29;20464;-73
2021/03/08 07:29:10;;;;;;;60.20;35.07;;;7.20;99.90;;;7.49;64.35;102265.03;4916670;29;20045;-73
2021/03/08 07:31:40;;;;;;;55.00;35.03;;;7.20;99.90;;;7.61;63.83;102260.16;4917820;29;20048;-72
2021/03/08 07:34:09;;;;;;;;;;;7.30;99.90;;;7.70;63.71;102265.72;4918018;29;20079;-73
2021/03/08 07:36:37;;;;;;;55.57;35.07;;;7.40;99.90;;;7.75;63.48;102266.72;4917524;29;19955;-73
2021/03/08 07:39:16;;;;;;;56.17;34.43;;;7.50;99.90;;;7.72;63.69;102264.03;4917510;29;20072;-73
2021/03/08 07:41:56;;;;;;;52.40;34.42;;;7.40;99.90;;;7.80;63.34;102273.00;4917410;29;20104;-73
2021/03/08 07:44:27;;;;;;;53.70;34.63;;;7.50;99.90;;;7.82;63.37;102278.34;4917103;29;20135;-73
2021/03/08 07:46:57;;;;;;;55.25;35.03;;;7.60;99.90;;;7.95;63.15;102276.13;4916759;29;20072;-73
2021/03/08 07:49:36;;;;;;;58.65;34.35;;;7.60;99.90;;;7.99;63.17;102272.69;4917321;29;20123;-73
2021/03/08 07:52:06;;;;;;;54.50;34.40;;;7.70;99.90;;;8.19;62.59;102284.69;4917239;29;20134;-72
2021/03/08 07:54:56;;;;;;;51.67;33.60;;;7.90;99.90;;;8.35;62.74;102290.41;4917355;29;20533;-71
2021/03/08 07:57:26;;;;;;;56.40;33.78;;;8.10;99.90;;;8.37;62.64;102233.34;4917363;29;20059;-72
2021/03/08 07:59:54;;;;;;;56.53;34.65;;;8.30;99.90;;;9.02;61.50;102278.13;4917254;29;20044;-72
2021/03/08 08:02:23;;;;;;;52.63;34.22;;;8.70;99.90;;;9.37;60.65;102286.91;4917114;29;20040;-72
2021/03/08 08:05:02;;;;;;;56.97;34.85;;;9.10;99.90;;;9.52;59.36;102271.41;4917093;29;20052;-72
2021/03/08 08:07:31;;;;;;;54.75;33.75;;;9.40;99.90;;;9.85;58.65;102286.22;4916933;29;20104;-72
2021/03/08 08:10:04;;;;;;;52.72;32.55;;;9.60;99.90;;;9.98;57.73;102264.50;4916720;29;20052;-71
2021/03/08 08:12:34;;;;;;;53.33;34.10;;;9.90;99.90;;;10.45;56.08;102296.28;4916753;29;20108;-72
2021/03/08 08:15:04;;;;;;;54.90;34.53;;;10.20;99.90;;;10.78;56.50;102286.31;4916647;29;20040;-72
2021/03/08 08:17:35;;;;;;;55.40;35.27;;;10.50;99.90;;;10.61;55.26;102271.88;4916884;29;20107;-72
2021/03/08 08:20:06;;;;;;;48.20;32.83;;;10.60;99.90;;;10.75;55.23;102296.84;4916726;29;20311;-71
2021/03/08 08:22:35;;;;;;;49.35;33.42;;;10.60;99.90;;;10.74;54.80;102292.41;4916758;29;20059;-72
2021/03/08 08:25:05;;;;;;;48.10;31.67;;;10.60;99.90;;;10.69;54.45;102271.16;4916851;29;20036;-71
2021/03/08 08:27:34;;;;;;;52.35;34.63;;;10.60;99.90;;;10.86;54.49;102300.56;4916712;29;20040;-71
2021/03/08 08:30:03;;;;;;;48.58;32.25;;;10.60;99.90;;;10.74;53.59;102293.28;4916520;29;20055;-71
2021/03/08 08:32:51;;;;;;;46.53;32.65;;;10.70;99.90;;;10.62;54.30;102297.50;4916438;29;20048;-72
2021/03/08 08:35:34;;;;;;;49.70;33.33;;;10.50;99.90;;;10.46;55.11;102298.06;4916707;29;20098;-72
2021/03/08 08:38:20;;;;;;;;;;;10.40;99.90;;;9.90;55.39;102233.47;4917157;29;20074;-72
2021/03/08 08:41:20;;;;;;;49.63;33.08;;;10.20;99.90;;;10.90;55.90;102295.34;4916512;29;20104;-72
2021/03/08 08:43:57;;;;;;;47.97;31.48;;;10.50;99.90;;;11.38;53.77;102260.78;4916675;29;20052;-71
2021/03/08 08:46:28;;;;;;;44.17;30.08;;;11.30;99.90;;;11.48;52.82;102297.16;4916509;29;20068;-72
2021/03/08 08:49:08;;;;;;;47.30;31.50;;;11.30;99.90;;;11.13;53.07;102294.84;4916460;29;20051;-71
2021/03/08 08:51:47;;;;;;;43.90;29.85;;;11.00;99.90;;;11.39;52.56;102291.75;4916399;29;20048;-72
2021/03/08 08:54:54;;;;;;;40.92;28.02;;;11.10;99.90;;;11.18;52.38;102291.41;4899677;29;20086;-71
2021/03/08 08:57:22;;;;;;;41.17;28.55;;;11.00;99.90;;;11.38;52.44;102292.59;4914319;29;20181;-71
2021/03/08 09:00:20;;;;;;;39.05;26.27;;;11.10;99.90;;;11.42;51.79;102286.47;4916423;29;20048;-71
2021/03/08 09:02:49;;;;;;;49.95;31.23;;;11.20;99.90;;;11.38;51.63;102300.53;4916307;29;20119;-71
2021/03/08 09:05:40;;;;;;;45.55;29.85;;;11.20;99.90;;;11.77;51.71;102293.19;4916169;29;20399;-72
2021/03/08 09:08:30;;;;;;;38.80;27.77;;;11.50;99.90;;;11.90;50.40;102296.91;4916039;29;20059;-71
2021/03/08 09:11:00;;;;;;;41.00;27.87;;;11.70;99.90;;;12.01;50.54;102297.03;4916235;29;20044;-73
2021/03/08 09:13:28;;;;;;;37.28;27.13;;;11.80;99.90;;;12.17;50.83;102296.38;4916143;29;20292;-71
2021/03/08 09:16:00;;;;;;;37.58;25.90;;;11.90;99.90;;;12.44;50.01;102296.69;4916003;29;20486;-71
2021/03/08 09:18:35;;;;;;;35.83;25.63;;;12.10;99.90;;;12.87;49.42;102293.59;4916031;29;20092;-71
2021/03/08 09:21:24;;;;;;;34.55;25.63;;;12.50;99.90;;;13.54;48.25;102308.31;4916467;29;20091;-71
2021/03/08 09:23:51;;;;;;;36.63;26.17;;;13.20;99.90;;;14.16;46.69;102300.66;4916293;29;20596;-70
2021/03/08 09:26:18;;;;;;;39.83;26.80;;;13.80;99.90;;;14.22;45.05;102304.22;4916140;29;20071;-72
2021/03/08 09:28:50;;;;;;;37.05;26.88;;;14.10;99.90;;;13.87;45.78;102302.28;4916009;29;20048;-71
2021/03/08 09:31:23;;;;;;;36.28;26.20;;;13.90;99.90;;;13.28;45.79;102297.47;4916157;29;20044;-72
2021/03/08 09:33:51;;;;;;;34.30;22.80;;;13.40;99.90;;;13.38;46.99;102295.78;4916484;29;20048;-71
2021/03/08 09:36:20;;;;;;;35.22;23.10;;;13.20;99.90;;;13.59;46.28;102302.13;4915961;29;20048;-72
2021/03/08 09:38:50;;;;;;;35.57;23.97;;;13.40;99.90;;;13.22;46.74;102294.78;4915999;29;20143;-72
2021/03/08 09:41:18;;;;;;;31.17;23.10;;;13.10;99.90;;;12.98;46.70;102291.91;4916031;29;20079;-71
2021/03/08 09:43:45;;;;;;;27.67;21.50;;;12.80;99.90;;;13.52;46.27;102288.78;4916114;29;20446;-72
2021/03/08 09:46:16;;;;;;;39.15;25.95;;;13.20;99.90;;;13.24;46.43;102285.06;4915834;29;20048;-72
2021/03/08 09:48:53;;;;;;;36.97;26.13;;;13.00;99.90;;;12.99;47.46;102287.50;4916050;29;20482;-72
2021/03/08 09:51:22;;;;;;;40.50;27.33;;;12.80;99.90;;;12.81;47.30;102258.09;4899568;29;20060;-72
2021/03/08 09:53:54;;;;;;;34.55;24.10;;;12.80;99.90;;;13.55;47.26;102278.16;4919331;29;20525;-72
2021/03/08 09:56:24;;;;;;;34.15;24.80;;;13.20;99.90;;;14.11;46.23;102294.44;4919164;29;20478;-72
2021/03/08 09:59:00;;;;;;;35.08;24.55;;;13.70;99.90;;;14.37;45.13;102291.00;4902372;29;20082;-72
2021/03/08 10:01:28;;;;;;;36.67;24.52;;;14.20;99.90;;;14.20;44.80;102271.41;4919279;29;20048;-72
2021/03/08 10:03:57;;;;;;;39.13;25.95;;;14.20;99.90;;;14.22;45.01;102240.34;4918883;29;20040;-72
2021/03/08 10:06:45;;;;;;;35.65;25.75;;;14.30;99.90;;;14.89;43.95;102289.31;4918731;29;20056;-72
2021/03/08 10:09:19;;;;;;;35.03;25.25;;;14.60;99.90;;;14.94;43.75;102295.53;4919173;29;20058;-72
2021/03/08 10:11:47;;;;;;;37.47;25.40;;;14.70;99.90;;;15.15;43.37;102289.31;4918807;29;20091;-72
2021/03/08 10:14:25;;;;;;;32.05;23.50;;;14.90;99.90;;;15.49;42.15;102293.75;4918624;29;20119;-72
2021/03/08 10:17:04;;;;;;;30.08;22.75;;;15.20;99.90;;;15.48;41.58;102275.09;4918728;29;20419;-72
2021/03/08 10:19:33;;;;;;;33.25;24.80;;;15.30;99.90;;;15.91;41.38;102298.09;4902097;29;20052;-73
2021/03/08 10:22:02;;;;;;;31.25;23.85;;;15.60;99.90;;;15.89;41.39;102297.22;4918982;29;20048;-72
2021/03/08 10:24:35;;;;;;;30.27;21.83;;;15.70;99.90;;;16.10;40.89;102295.34;4918888;29;20048;-72
2021/03/08 10:27:10;;;;;;;32.50;23.17;;;15.80;99.90;;;16.25;39.67;102294.41;4918747;29;20490;-72
2021/03/08 10:29:38;;;;;;;30.75;22.20;;;16.00;99.90;;;16.27;38.99;102288.16;4918914;29;20048;-73
2021/03/08 10:32:08;;;;;;;34.47;23.50;;;16.00;99.90;;;16.37;39.33;102290.78;4918887;29;20072;-71
2021/03/08 10:34:37;;;;;;;33.60;24.42;;;16.10;99.90;;;15.83;39.67;102202.03;4918688;29;20417;-73